sensor_id;sensor_type;location;lat;lon;timestamp;P1;durP1;ratioP1;P2;durP2;ratioP2
56581;SDS011;42463;52.214;21.238;2023-05-10T00:01:16;11.00;;;6.50;;
56581;SDS011;42463;52.214;21.238;2023-05-10T00:03:18;11.10;;;6.50;;
56581;SDS011;42463;52.214;21.238;2023-05-10T00:05:21;10.70;;;6.40;;
56581;SDS011;42463;52.214;21.238;2023-05-10T00:07:24;11.80;;;6.80;;
56581;SDS011;42463;52.214;21.238;2023-05-10T00:09:27;10.60;;;5.90;;
56581;SDS011;42463;52.214;21.238;2023-05-10T00:11:30;11.20;;;7.10;;
56581;SDS011;42463;52.214;21.238;2023-05-10T00:13:33;9.40;;;6.30;;
56581;SDS011;42463;52.214;21.238;2023-05-10T00:15:36;13.40;;;6.90;;
56581;SDS011;42463;52.214;21.238;2023-05-10T00:17:38;9.10;;;6.20;;
56581;SDS011;42463;52.214;21.238;2023-05-10T00:19:41;9.30;;;6.60;;
56581;SDS011;42463;52.214;21.238;2023-05-10T00:21:44;9.40;;;5.90;;
56581;SDS011;42463;52.214;21.238;2023-05-10T00:23:47;9.10;;;6.00;;
56581;SDS011;42463;52.214;21.238;2023-05-10T00:25:50;10.60;;;6.90;;
56581;SDS011;42463;52.214;21.238;2023-05-10T00:27:53;11.60;;;6.40;;
56581;SDS011;42463;52.214;21.238;2023-05-10T00:29:58;14.10;;;6.10;;
56581;SDS011;42463;52.214;21.238;2023-05-10T00:32:01;11.20;;;6.20;;
56581;SDS011;42463;52.214;21.238;2023-05-10T00:34:04;11.20;;;5.90;;
56581;SDS011;42463;52.214;21.238;2023-05-10T00:36:07;9.50;;;5.80;;
56581;SDS011;42463;52.214;21.238;2023-05-10T00:38:10;10.60;;;6.20;;
56581;SDS011;42463;52.214;21.238;2023-05-10T00:40:13;11.60;;;5.60;;
56581;SDS011;42463;52.214;21.238;2023-05-10T00:42:17;8.80;;;5.80;;
56581;SDS011;42463;52.214;21.238;2023-05-10T00:44:20;9.80;;;6.50;;
56581;SDS011;42463;52.214;21.238;2023-05-10T00:46:23;12.30;;;6.60;;
56581;SDS011;42463;52.214;21.238;2023-05-10T00:48:28;10.10;;;6.30;;
56581;SDS011;42463;52.214;21.238;2023-05-10T00:50:31;9.10;;;5.80;;
56581;SDS011;42463;52.214;21.238;2023-05-10T00:52:35;9.70;;;5.90;;
56581;SDS011;42463;52.214;21.238;2023-05-10T00:54:38;11.30;;;6.10;;
56581;SDS011;42463;52.214;21.238;2023-05-10T00:56:41;10.70;;;6.50;;
56581;SDS011;42463;52.214;21.238;2023-05-10T00:58:45;9.10;;;5.30;;
56581;SDS011;42463;52.214;21.238;2023-05-10T01:03:41;9.80;;;5.30;;
56581;SDS011;42463;52.214;21.238;2023-05-10T01:05:44;9.30;;;5.90;;
56581;SDS011;42463;52.214;21.238;2023-05-10T01:07:47;9.70;;;5.90;;
56581;SDS011;42463;52.214;21.238;2023-05-10T01:09:50;9.80;;;5.70;;
56581;SDS011;42463;52.214;21.238;2023-05-10T01:11:53;8.60;;;5.50;;
56581;SDS011;42463;52.214;21.238;2023-05-10T01:13:57;10.70;;;5.80;;
56581;SDS011;42463;52.214;21.238;2023-05-10T01:18:04;10.30;;;5.90;;
56581;SDS011;42463;52.214;21.238;2023-05-10T01:20:08;8.40;;;5.70;;
56581;SDS011;42463;52.214;21.238;2023-05-10T01:22:20;9.20;;;5.80;;
56581;SDS011;42463;52.214;21.238;2023-05-10T01:24:43;9.80;;;5.90;;
56581;SDS011;42463;52.214;21.238;2023-05-10T01:27:12;8.20;;;5.80;;
56581;SDS011;42463;52.214;21.238;2023-05-10T01:29:27;9.10;;;5.60;;
56581;SDS011;42463;52.214;21.238;2023-05-10T01:31:54;11.70;;;5.60;;
56581;SDS011;42463;52.214;21.238;2023-05-10T01:34:05;10.30;;;5.50;;
56581;SDS011;42463;52.214;21.238;2023-05-10T01:36:13;11.60;;;5.60;;
56581;SDS011;42463;52.214;21.238;2023-05-10T01:38:28;8.50;;;5.40;;
56581;SDS011;42463;52.214;21.238;2023-05-10T01:40:36;8.70;;;5.70;;
56581;SDS011;42463;52.214;21.238;2023-05-10T01:42:46;8.50;;;5.20;;
56581;SDS011;42463;52.214;21.238;2023-05-10T01:44:53;8.80;;;5.40;;
56581;SDS011;42463;52.214;21.238;2023-05-10T01:47:05;7.40;;;5.10;;
56581;SDS011;42463;52.214;21.238;2023-05-10T01:49:18;10.50;;;5.30;;
56581;SDS011;42463;52.214;21.238;2023-05-10T01:51:25;8.40;;;5.20;;
56581;SDS011;42463;52.214;21.238;2023-05-10T01:53:34;9.20;;;5.20;;
56581;SDS011;42463;52.214;21.238;2023-05-10T01:55:43;7.00;;;4.80;;
56581;SDS011;42463;52.214;21.238;2023-05-10T01:57:51;8.70;;;5.00;;
56581;SDS011;42463;52.214;21.238;2023-05-10T01:59:59;9.10;;;5.60;;
56581;SDS011;42463;52.214;21.238;2023-05-10T02:02:15;8.40;;;5.30;;
56581;SDS011;42463;52.214;21.238;2023-05-10T02:04:20;8.20;;;5.20;;
56581;SDS011;42463;52.214;21.238;2023-05-10T02:06:25;8.50;;;5.00;;
56581;SDS011;42463;52.214;21.238;2023-05-10T02:08:30;9.00;;;5.30;;
56581;SDS011;42463;52.214;21.238;2023-05-10T02:10:34;11.20;;;5.50;;
56581;SDS011;42463;52.214;21.238;2023-05-10T02:12:40;5.50;;;4.50;;
56581;SDS011;42463;52.214;21.238;2023-05-10T02:14:44;8.10;;;4.90;;
56581;SDS011;42463;52.214;21.238;2023-05-10T02:16:48;7.90;;;5.30;;
56581;SDS011;42463;52.214;21.238;2023-05-10T02:18:55;8.50;;;5.50;;
56581;SDS011;42463;52.214;21.238;2023-05-10T02:21:01;8.10;;;5.20;;
56581;SDS011;42463;52.214;21.238;2023-05-10T02:23:05;8.60;;;5.00;;
56581;SDS011;42463;52.214;21.238;2023-05-10T02:25:09;6.90;;;4.50;;
56581;SDS011;42463;52.214;21.238;2023-05-10T02:27:15;14.20;;;4.80;;
56581;SDS011;42463;52.214;21.238;2023-05-10T02:29:19;7.50;;;4.80;;
56581;SDS011;42463;52.214;21.238;2023-05-10T02:31:24;7.40;;;4.70;;
56581;SDS011;42463;52.214;21.238;2023-05-10T02:33:27;7.80;;;4.80;;
56581;SDS011;42463;52.214;21.238;2023-05-10T02:35:32;9.20;;;4.80;;
56581;SDS011;42463;52.214;21.238;2023-05-10T02:37:37;7.90;;;5.10;;
56581;SDS011;42463;52.214;21.238;2023-05-10T02:39:41;7.50;;;4.60;;
56581;SDS011;42463;52.214;21.238;2023-05-10T02:41:47;8.30;;;5.10;;
56581;SDS011;42463;52.214;21.238;2023-05-10T02:43:52;8.00;;;4.90;;
56581;SDS011;42463;52.214;21.238;2023-05-10T02:46:01;8.50;;;4.70;;
56581;SDS011;42463;52.214;21.238;2023-05-10T02:48:04;7.90;;;4.80;;
56581;SDS011;42463;52.214;21.238;2023-05-10T02:50:09;8.30;;;5.10;;
56581;SDS011;42463;52.214;21.238;2023-05-10T02:52:12;7.50;;;4.70;;
56581;SDS011;42463;52.214;21.238;2023-05-10T02:54:23;8.30;;;5.10;;
56581;SDS011;42463;52.214;21.238;2023-05-10T02:56:32;8.90;;;5.30;;
56581;SDS011;42463;52.214;21.238;2023-05-10T02:58:37;8.60;;;5.10;;
56581;SDS011;42463;52.214;21.238;2023-05-10T03:00:40;9.70;;;5.90;;
56581;SDS011;42463;52.214;21.238;2023-05-10T03:02:43;7.20;;;5.10;;
56581;SDS011;42463;52.214;21.238;2023-05-10T03:04:46;9.10;;;4.90;;
56581;SDS011;42463;52.214;21.238;2023-05-10T03:06:49;9.00;;;5.00;;
56581;SDS011;42463;52.214;21.238;2023-05-10T03:10:55;9.20;;;5.20;;
56581;SDS011;42463;52.214;21.238;2023-05-10T03:13:12;9.70;;;5.60;;
56581;SDS011;42463;52.214;21.238;2023-05-10T03:15:30;8.30;;;5.30;;
56581;SDS011;42463;52.214;21.238;2023-05-10T03:17:41;8.40;;;5.20;;
56581;SDS011;42463;52.214;21.238;2023-05-10T03:19:54;10.30;;;5.30;;
56581;SDS011;42463;52.214;21.238;2023-05-10T03:21:59;8.50;;;4.80;;
56581;SDS011;42463;52.214;21.238;2023-05-10T03:24:08;8.20;;;5.10;;
56581;SDS011;42463;52.214;21.238;2023-05-10T03:26:15;9.00;;;5.40;;
56581;SDS011;42463;52.214;21.238;2023-05-10T03:28:22;7.80;;;5.50;;
56581;SDS011;42463;52.214;21.238;2023-05-10T03:30:28;9.50;;;5.40;;
56581;SDS011;42463;52.214;21.238;2023-05-10T03:32:32;9.20;;;5.20;;
56581;SDS011;42463;52.214;21.238;2023-05-10T03:34:36;10.30;;;5.00;;
56581;SDS011;42463;52.214;21.238;2023-05-10T03:36:44;7.00;;;4.20;;
56581;SDS011;42463;52.214;21.238;2023-05-10T03:38:47;8.40;;;5.00;;
56581;SDS011;42463;52.214;21.238;2023-05-10T03:40:50;8.90;;;4.90;;
56581;SDS011;42463;52.214;21.238;2023-05-10T03:42:53;7.80;;;4.80;;
56581;SDS011;42463;52.214;21.238;2023-05-10T03:44:56;9.60;;;5.60;;
56581;SDS011;42463;52.214;21.238;2023-05-10T03:46:59;7.50;;;4.60;;
56581;SDS011;42463;52.214;21.238;2023-05-10T03:49:02;6.80;;;4.60;;
56581;SDS011;42463;52.214;21.238;2023-05-10T03:51:05;7.20;;;5.00;;
56581;SDS011;42463;52.214;21.238;2023-05-10T03:53:08;8.70;;;5.10;;
56581;SDS011;42463;52.214;21.238;2023-05-10T03:55:10;8.40;;;5.30;;
56581;SDS011;42463;52.214;21.238;2023-05-10T03:57:13;7.60;;;4.80;;
56581;SDS011;42463;52.214;21.238;2023-05-10T03:59:16;7.50;;;5.30;;
56581;SDS011;42463;52.214;21.238;2023-05-10T04:01:19;9.30;;;5.10;;
56581;SDS011;42463;52.214;21.238;2023-05-10T04:03:22;7.30;;;4.60;;
56581;SDS011;42463;52.214;21.238;2023-05-10T04:05:25;7.00;;;4.80;;
56581;SDS011;42463;52.214;21.238;2023-05-10T04:07:28;8.30;;;4.70;;
56581;SDS011;42463;52.214;21.238;2023-05-10T04:09:31;10.40;;;4.60;;
56581;SDS011;42463;52.214;21.238;2023-05-10T04:11:34;7.90;;;5.10;;
56581;SDS011;42463;52.214;21.238;2023-05-10T04:13:37;9.40;;;4.90;;
56581;SDS011;42463;52.214;21.238;2023-05-10T04:15:40;9.10;;;5.10;;
56581;SDS011;42463;52.214;21.238;2023-05-10T04:17:42;6.60;;;4.90;;
56581;SDS011;42463;52.214;21.238;2023-05-10T04:19:45;6.90;;;4.70;;
56581;SDS011;42463;52.214;21.238;2023-05-10T04:21:48;9.60;;;5.40;;
56581;SDS011;42463;52.214;21.238;2023-05-10T04:23:51;9.10;;;4.90;;
56581;SDS011;42463;52.214;21.238;2023-05-10T04:25:59;8.70;;;4.80;;
56581;SDS011;42463;52.214;21.238;2023-05-10T04:28:02;6.90;;;4.70;;
56581;SDS011;42463;52.214;21.238;2023-05-10T04:30:07;8.20;;;5.30;;
56581;SDS011;42463;52.214;21.238;2023-05-10T04:32:11;9.60;;;4.80;;
56581;SDS011;42463;52.214;21.238;2023-05-10T04:34:14;8.60;;;4.90;;
56581;SDS011;42463;52.214;21.238;2023-05-10T04:36:17;8.20;;;4.80;;
56581;SDS011;42463;52.214;21.238;2023-05-10T04:38:20;11.80;;;5.00;;
56581;SDS011;42463;52.214;21.238;2023-05-10T04:40:23;10.50;;;5.10;;
56581;SDS011;42463;52.214;21.238;2023-05-10T04:42:26;8.30;;;4.90;;
56581;SDS011;42463;52.214;21.238;2023-05-10T04:44:29;8.70;;;4.30;;
56581;SDS011;42463;52.214;21.238;2023-05-10T04:46:32;9.10;;;5.00;;
56581;SDS011;42463;52.214;21.238;2023-05-10T04:48:34;7.10;;;5.10;;
56581;SDS011;42463;52.214;21.238;2023-05-10T04:50:38;9.20;;;5.20;;
56581;SDS011;42463;52.214;21.238;2023-05-10T04:52:41;9.10;;;4.80;;
56581;SDS011;42463;52.214;21.238;2023-05-10T04:54:44;8.50;;;4.40;;
56581;SDS011;42463;52.214;21.238;2023-05-10T04:56:47;8.00;;;4.50;;
56581;SDS011;42463;52.214;21.238;2023-05-10T04:58:49;5.40;;;4.20;;
56581;SDS011;42463;52.214;21.238;2023-05-10T05:00:52;6.70;;;4.80;;
56581;SDS011;42463;52.214;21.238;2023-05-10T05:02:55;7.60;;;4.60;;
56581;SDS011;42463;52.214;21.238;2023-05-10T05:04:58;8.50;;;4.30;;
56581;SDS011;42463;52.214;21.238;2023-05-10T05:07:00;10.10;;;5.10;;
56581;SDS011;42463;52.214;21.238;2023-05-10T05:09:03;8.40;;;4.40;;
56581;SDS011;42463;52.214;21.238;2023-05-10T05:11:06;6.70;;;3.50;;
56581;SDS011;42463;52.214;21.238;2023-05-10T05:13:09;7.10;;;4.50;;
56581;SDS011;42463;52.214;21.238;2023-05-10T05:15:14;7.30;;;4.70;;
56581;SDS011;42463;52.214;21.238;2023-05-10T05:17:17;8.30;;;4.40;;
56581;SDS011;42463;52.214;21.238;2023-05-10T05:19:20;6.20;;;4.10;;
56581;SDS011;42463;52.214;21.238;2023-05-10T05:21:23;7.60;;;4.70;;
56581;SDS011;42463;52.214;21.238;2023-05-10T05:23:28;7.90;;;4.10;;
56581;SDS011;42463;52.214;21.238;2023-05-10T05:27:33;8.50;;;4.50;;
56581;SDS011;42463;52.214;21.238;2023-05-10T05:29:36;10.50;;;4.50;;
56581;SDS011;42463;52.214;21.238;2023-05-10T05:31:39;8.40;;;4.50;;
56581;SDS011;42463;52.214;21.238;2023-05-10T05:33:41;7.90;;;3.90;;
56581;SDS011;42463;52.214;21.238;2023-05-10T05:35:44;7.20;;;5.10;;
56581;SDS011;42463;52.214;21.238;2023-05-10T05:37:52;9.50;;;4.90;;
56581;SDS011;42463;52.214;21.238;2023-05-10T05:39:54;11.90;;;5.00;;
56581;SDS011;42463;52.214;21.238;2023-05-10T05:41:57;5.80;;;3.40;;
56581;SDS011;42463;52.214;21.238;2023-05-10T05:44:00;6.70;;;4.20;;
56581;SDS011;42463;52.214;21.238;2023-05-10T05:46:03;8.20;;;4.50;;
56581;SDS011;42463;52.214;21.238;2023-05-10T05:48:05;9.90;;;4.30;;
56581;SDS011;42463;52.214;21.238;2023-05-10T05:50:09;6.60;;;4.40;;
56581;SDS011;42463;52.214;21.238;2023-05-10T05:52:12;11.70;;;4.60;;
56581;SDS011;42463;52.214;21.238;2023-05-10T05:54:15;9.10;;;4.10;;
56581;SDS011;42463;52.214;21.238;2023-05-10T05:56:18;9.80;;;4.40;;
56581;SDS011;42463;52.214;21.238;2023-05-10T05:58:25;10.50;;;4.00;;
56581;SDS011;42463;52.214;21.238;2023-05-10T06:00:28;7.80;;;3.80;;
56581;SDS011;42463;52.214;21.238;2023-05-10T06:02:31;14.50;;;4.10;;
56581;SDS011;42463;52.214;21.238;2023-05-10T06:04:33;8.50;;;3.40;;
56581;SDS011;42463;52.214;21.238;2023-05-10T06:06:38;8.60;;;4.00;;
56581;SDS011;42463;52.214;21.238;2023-05-10T06:08:40;6.60;;;3.50;;
56581;SDS011;42463;52.214;21.238;2023-05-10T06:10:43;6.40;;;3.50;;
56581;SDS011;42463;52.214;21.238;2023-05-10T06:12:46;9.80;;;3.50;;
56581;SDS011;42463;52.214;21.238;2023-05-10T06:14:49;8.40;;;3.60;;
56581;SDS011;42463;52.214;21.238;2023-05-10T06:16:52;8.00;;;3.70;;
56581;SDS011;42463;52.214;21.238;2023-05-10T06:18:55;9.00;;;3.80;;
56581;SDS011;42463;52.214;21.238;2023-05-10T06:20:57;10.20;;;3.70;;
56581;SDS011;42463;52.214;21.238;2023-05-10T06:23:00;6.10;;;3.60;;
56581;SDS011;42463;52.214;21.238;2023-05-10T06:25:03;6.50;;;3.40;;
56581;SDS011;42463;52.214;21.238;2023-05-10T06:27:08;10.00;;;3.50;;
56581;SDS011;42463;52.214;21.238;2023-05-10T06:29:13;6.50;;;3.10;;
56581;SDS011;42463;52.214;21.238;2023-05-10T06:31:16;11.90;;;4.00;;
56581;SDS011;42463;52.214;21.238;2023-05-10T06:33:19;13.40;;;3.80;;
56581;SDS011;42463;52.214;21.238;2023-05-10T06:35:22;13.20;;;3.60;;
56581;SDS011;42463;52.214;21.238;2023-05-10T06:37:25;9.10;;;3.00;;
56581;SDS011;42463;52.214;21.238;2023-05-10T06:39:28;6.80;;;3.40;;
56581;SDS011;42463;52.214;21.238;2023-05-10T06:41:31;8.30;;;3.30;;
56581;SDS011;42463;52.214;21.238;2023-05-10T06:43:34;7.40;;;3.30;;
56581;SDS011;42463;52.214;21.238;2023-05-10T06:45:36;4.20;;;2.90;;
56581;SDS011;42463;52.214;21.238;2023-05-10T06:47:39;4.00;;;2.90;;
56581;SDS011;42463;52.214;21.238;2023-05-10T06:51:44;8.40;;;3.30;;
56581;SDS011;42463;52.214;21.238;2023-05-10T06:53:47;8.20;;;3.30;;
56581;SDS011;42463;52.214;21.238;2023-05-10T06:55:50;6.80;;;3.40;;
56581;SDS011;42463;52.214;21.238;2023-05-10T06:57:53;4.70;;;2.70;;
56581;SDS011;42463;52.214;21.238;2023-05-10T06:59:56;7.40;;;3.20;;
56581;SDS011;42463;52.214;21.238;2023-05-10T07:01:58;6.80;;;3.40;;
56581;SDS011;42463;52.214;21.238;2023-05-10T07:04:01;6.00;;;3.20;;
56581;SDS011;42463;52.214;21.238;2023-05-10T07:06:05;6.10;;;3.10;;
56581;SDS011;42463;52.214;21.238;2023-05-10T07:10:10;3.00;;;2.70;;
56581;SDS011;42463;52.214;21.238;2023-05-10T07:12:13;4.40;;;2.50;;
56581;SDS011;42463;52.214;21.238;2023-05-10T07:14:16;5.30;;;2.60;;
56581;SDS011;42463;52.214;21.238;2023-05-10T07:16:19;4.70;;;2.50;;
56581;SDS011;42463;52.214;21.238;2023-05-10T07:18:22;4.80;;;2.60;;
56581;SDS011;42463;52.214;21.238;2023-05-10T07:20:25;4.20;;;2.80;;
56581;SDS011;42463;52.214;21.238;2023-05-10T07:22:28;2.90;;;2.30;;
56581;SDS011;42463;52.214;21.238;2023-05-10T07:24:31;3.10;;;2.50;;
56581;SDS011;42463;52.214;21.238;2023-05-10T07:26:34;3.30;;;2.10;;
56581;SDS011;42463;52.214;21.238;2023-05-10T07:28:37;7.00;;;2.50;;
56581;SDS011;42463;52.214;21.238;2023-05-10T07:30:40;3.50;;;2.80;;
56581;SDS011;42463;52.214;21.238;2023-05-10T07:32:43;5.40;;;2.30;;
56581;SDS011;42463;52.214;21.238;2023-05-10T07:34:46;3.70;;;2.60;;
56581;SDS011;42463;52.214;21.238;2023-05-10T07:36:49;7.40;;;2.60;;
56581;SDS011;42463;52.214;21.238;2023-05-10T07:38:52;5.10;;;2.50;;
56581;SDS011;42463;52.214;21.238;2023-05-10T07:40:55;5.50;;;2.50;;
56581;SDS011;42463;52.214;21.238;2023-05-10T07:42:58;5.10;;;2.30;;
56581;SDS011;42463;52.214;21.238;2023-05-10T07:45:03;4.30;;;2.60;;
56581;SDS011;42463;52.214;21.238;2023-05-10T07:47:07;5.00;;;2.60;;
56581;SDS011;42463;52.214;21.238;2023-05-10T07:51:13;6.20;;;2.80;;
56581;SDS011;42463;52.214;21.238;2023-05-10T07:53:15;4.30;;;2.70;;
56581;SDS011;42463;52.214;21.238;2023-05-10T07:55:20;4.70;;;2.80;;
56581;SDS011;42463;52.214;21.238;2023-05-10T07:57:23;3.20;;;2.00;;
56581;SDS011;42463;52.214;21.238;2023-05-10T07:59:25;4.00;;;2.30;;
56581;SDS011;42463;52.214;21.238;2023-05-10T08:01:29;4.90;;;2.70;;
56581;SDS011;42463;52.214;21.238;2023-05-10T08:03:33;4.30;;;2.50;;
56581;SDS011;42463;52.214;21.238;2023-05-10T08:05:36;6.40;;;2.50;;
56581;SDS011;42463;52.214;21.238;2023-05-10T08:07:38;4.80;;;2.60;;
56581;SDS011;42463;52.214;21.238;2023-05-10T08:09:41;6.80;;;2.70;;
56581;SDS011;42463;52.214;21.238;2023-05-10T08:11:44;2.90;;;2.20;;
56581;SDS011;42463;52.214;21.238;2023-05-10T08:13:47;3.80;;;2.40;;
56581;SDS011;42463;52.214;21.238;2023-05-10T08:15:50;4.50;;;2.60;;
56581;SDS011;42463;52.214;21.238;2023-05-10T08:17:54;8.40;;;2.90;;
56581;SDS011;42463;52.214;21.238;2023-05-10T08:19:57;4.60;;;2.80;;
56581;SDS011;42463;52.214;21.238;2023-05-10T08:21:59;7.00;;;2.50;;
56581;SDS011;42463;52.214;21.238;2023-05-10T08:24:02;3.70;;;2.30;;
56581;SDS011;42463;52.214;21.238;2023-05-10T08:26:06;5.20;;;2.30;;
56581;SDS011;42463;52.214;21.238;2023-05-10T08:28:09;4.10;;;2.30;;
56581;SDS011;42463;52.214;21.238;2023-05-10T08:30:12;5.00;;;2.80;;
56581;SDS011;42463;52.214;21.238;2023-05-10T08:32:15;4.10;;;2.20;;
56581;SDS011;42463;52.214;21.238;2023-05-10T08:34:18;4.70;;;2.60;;
56581;SDS011;42463;52.214;21.238;2023-05-10T08:36:20;4.30;;;2.20;;
56581;SDS011;42463;52.214;21.238;2023-05-10T08:38:25;3.50;;;2.50;;
56581;SDS011;42463;52.214;21.238;2023-05-10T08:40:28;4.10;;;2.70;;
56581;SDS011;42463;52.214;21.238;2023-05-10T08:42:31;5.10;;;2.50;;
56581;SDS011;42463;52.214;21.238;2023-05-10T08:44:39;9.40;;;2.70;;
56581;SDS011;42463;52.214;21.238;2023-05-10T08:46:42;6.20;;;2.50;;
56581;SDS011;42463;52.214;21.238;2023-05-10T08:48:49;5.30;;;2.70;;
56581;SDS011;42463;52.214;21.238;2023-05-10T08:50:53;4.70;;;2.60;;
56581;SDS011;42463;52.214;21.238;2023-05-10T08:52:59;6.30;;;2.80;;
56581;SDS011;42463;52.214;21.238;2023-05-10T08:55:05;3.60;;;2.50;;
56581;SDS011;42463;52.214;21.238;2023-05-10T08:57:09;6.40;;;2.50;;
56581;SDS011;42463;52.214;21.238;2023-05-10T08:59:12;6.20;;;2.60;;
56581;SDS011;42463;52.214;21.238;2023-05-10T09:03:18;3.00;;;1.90;;
56581;SDS011;42463;52.214;21.238;2023-05-10T09:05:21;4.90;;;2.50;;
56581;SDS011;42463;52.214;21.238;2023-05-10T09:07:23;6.20;;;3.40;;
56581;SDS011;42463;52.214;21.238;2023-05-10T09:09:27;4.50;;;2.50;;
56581;SDS011;42463;52.214;21.238;2023-05-10T09:11:30;5.50;;;2.30;;
56581;SDS011;42463;52.214;21.238;2023-05-10T09:13:33;5.50;;;3.30;;
56581;SDS011;42463;52.214;21.238;2023-05-10T09:15:37;7.30;;;2.60;;
56581;SDS011;42463;52.214;21.238;2023-05-10T09:19:45;6.70;;;2.60;;
56581;SDS011;42463;52.214;21.238;2023-05-10T09:21:47;4.50;;;3.00;;
56581;SDS011;42463;52.214;21.238;2023-05-10T09:23:51;5.00;;;2.60;;
56581;SDS011;42463;52.214;21.238;2023-05-10T09:26:02;6.10;;;2.70;;
56581;SDS011;42463;52.214;21.238;2023-05-10T09:28:08;5.80;;;2.70;;
56581;SDS011;42463;52.214;21.238;2023-05-10T09:30:14;8.50;;;2.60;;
56581;SDS011;42463;52.214;21.238;2023-05-10T09:32:18;4.70;;;2.40;;
56581;SDS011;42463;52.214;21.238;2023-05-10T09:34:22;8.70;;;3.00;;
56581;SDS011;42463;52.214;21.238;2023-05-10T09:36:31;3.40;;;2.60;;
56581;SDS011;42463;52.214;21.238;2023-05-10T09:38:45;5.50;;;2.50;;
56581;SDS011;42463;52.214;21.238;2023-05-10T09:40:52;5.50;;;2.40;;
56581;SDS011;42463;52.214;21.238;2023-05-10T09:42:56;4.40;;;2.40;;
56581;SDS011;42463;52.214;21.238;2023-05-10T09:45:01;5.50;;;2.60;;
56581;SDS011;42463;52.214;21.238;2023-05-10T09:47:05;4.50;;;2.50;;
56581;SDS011;42463;52.214;21.238;2023-05-10T09:49:08;4.70;;;2.30;;
56581;SDS011;42463;52.214;21.238;2023-05-10T09:51:14;4.00;;;2.80;;
56581;SDS011;42463;52.214;21.238;2023-05-10T09:53:21;3.40;;;2.20;;
56581;SDS011;42463;52.214;21.238;2023-05-10T09:55:25;4.10;;;2.30;;
56581;SDS011;42463;52.214;21.238;2023-05-10T09:57:39;3.50;;;2.10;;
56581;SDS011;42463;52.214;21.238;2023-05-10T09:59:42;4.30;;;2.90;;
56581;SDS011;42463;52.214;21.238;2023-05-10T10:01:49;4.10;;;2.40;;
56581;SDS011;42463;52.214;21.238;2023-05-10T10:03:52;5.40;;;2.80;;
56581;SDS011;42463;52.214;21.238;2023-05-10T10:05:55;5.80;;;2.40;;
56581;SDS011;42463;52.214;21.238;2023-05-10T10:07:59;3.90;;;2.70;;
56581;SDS011;42463;52.214;21.238;2023-05-10T10:10:04;7.30;;;2.30;;
56581;SDS011;42463;52.214;21.238;2023-05-10T10:12:12;5.20;;;2.50;;
56581;SDS011;42463;52.214;21.238;2023-05-10T10:14:15;3.80;;;2.30;;
56581;SDS011;42463;52.214;21.238;2023-05-10T10:16:20;6.40;;;2.80;;
56581;SDS011;42463;52.214;21.238;2023-05-10T10:18:22;6.30;;;2.40;;
56581;SDS011;42463;52.214;21.238;2023-05-10T10:20:28;4.90;;;2.60;;
56581;SDS011;42463;52.214;21.238;2023-05-10T10:22:31;4.40;;;3.00;;
56581;SDS011;42463;52.214;21.238;2023-05-10T10:24:34;8.30;;;2.70;;
56581;SDS011;42463;52.214;21.238;2023-05-10T10:26:36;7.70;;;2.60;;
56581;SDS011;42463;52.214;21.238;2023-05-10T10:28:43;4.30;;;2.20;;
56581;SDS011;42463;52.214;21.238;2023-05-10T10:30:53;3.10;;;2.30;;
56581;SDS011;42463;52.214;21.238;2023-05-10T10:33:09;5.30;;;2.40;;
56581;SDS011;42463;52.214;21.238;2023-05-10T10:35:30;10.70;;;3.10;;
56581;SDS011;42463;52.214;21.238;2023-05-10T10:37:46;5.20;;;2.60;;
56581;SDS011;42463;52.214;21.238;2023-05-10T10:39:51;5.50;;;2.30;;
56581;SDS011;42463;52.214;21.238;2023-05-10T10:41:57;3.50;;;2.60;;
56581;SDS011;42463;52.214;21.238;2023-05-10T10:49:10;3.50;;;2.30;;
56581;SDS011;42463;52.214;21.238;2023-05-10T10:51:13;7.90;;;2.50;;
56581;SDS011;42463;52.214;21.238;2023-05-10T10:55:18;4.20;;;2.40;;
56581;SDS011;42463;52.214;21.238;2023-05-10T10:57:24;10.40;;;2.60;;
56581;SDS011;42463;52.214;21.238;2023-05-10T10:59:28;5.00;;;2.50;;
56581;SDS011;42463;52.214;21.238;2023-05-10T11:01:32;8.80;;;2.80;;
56581;SDS011;42463;52.214;21.238;2023-05-10T11:03:36;5.50;;;2.90;;
56581;SDS011;42463;52.214;21.238;2023-05-10T11:05:39;3.40;;;2.50;;
56581;SDS011;42463;52.214;21.238;2023-05-10T11:07:51;4.80;;;3.10;;
56581;SDS011;42463;52.214;21.238;2023-05-10T11:09:55;3.80;;;2.30;;
56581;SDS011;42463;52.214;21.238;2023-05-10T11:12:08;4.80;;;2.50;;
56581;SDS011;42463;52.214;21.238;2023-05-10T11:14:11;6.90;;;2.70;;
56581;SDS011;42463;52.214;21.238;2023-05-10T11:16:17;4.00;;;2.50;;
56581;SDS011;42463;52.214;21.238;2023-05-10T11:18:25;6.00;;;2.90;;
56581;SDS011;42463;52.214;21.238;2023-05-10T11:20:33;4.30;;;2.80;;
56581;SDS011;42463;52.214;21.238;2023-05-10T11:22:50;5.20;;;2.70;;
56581;SDS011;42463;52.214;21.238;2023-05-10T11:24:57;5.20;;;2.60;;
56581;SDS011;42463;52.214;21.238;2023-05-10T11:27:00;5.30;;;2.50;;
56581;SDS011;42463;52.214;21.238;2023-05-10T11:29:03;3.60;;;1.90;;
56581;SDS011;42463;52.214;21.238;2023-05-10T11:31:06;6.00;;;2.30;;
56581;SDS011;42463;52.214;21.238;2023-05-10T11:33:09;4.80;;;2.40;;
56581;SDS011;42463;52.214;21.238;2023-05-10T11:35:16;4.70;;;2.90;;
56581;SDS011;42463;52.214;21.238;2023-05-10T11:37:19;5.20;;;2.90;;
56581;SDS011;42463;52.214;21.238;2023-05-10T11:39:24;6.60;;;2.50;;
56581;SDS011;42463;52.214;21.238;2023-05-10T11:41:29;4.90;;;2.70;;
56581;SDS011;42463;52.214;21.238;2023-05-10T11:43:32;4.20;;;2.50;;
56581;SDS011;42463;52.214;21.238;2023-05-10T11:45:35;5.00;;;2.90;;
56581;SDS011;42463;52.214;21.238;2023-05-10T11:47:38;5.50;;;2.60;;
56581;SDS011;42463;52.214;21.238;2023-05-10T11:49:43;3.80;;;2.40;;
56581;SDS011;42463;52.214;21.238;2023-05-10T11:53:49;3.70;;;2.60;;
56581;SDS011;42463;52.214;21.238;2023-05-10T11:55:54;5.20;;;2.70;;
56581;SDS011;42463;52.214;21.238;2023-05-10T11:57:59;4.70;;;2.50;;
56581;SDS011;42463;52.214;21.238;2023-05-10T12:00:04;5.70;;;2.60;;
56581;SDS011;42463;52.214;21.238;2023-05-10T12:02:09;5.80;;;2.70;;
56581;SDS011;42463;52.214;21.238;2023-05-10T12:06:14;5.30;;;2.30;;
56581;SDS011;42463;52.214;21.238;2023-05-10T12:08:20;7.10;;;2.60;;
56581;SDS011;42463;52.214;21.238;2023-05-10T12:10:25;4.30;;;2.60;;
56581;SDS011;42463;52.214;21.238;2023-05-10T12:12:35;3.80;;;2.60;;
56581;SDS011;42463;52.214;21.238;2023-05-10T12:14:41;4.20;;;2.40;;
56581;SDS011;42463;52.214;21.238;2023-05-10T12:16:43;6.30;;;3.10;;
56581;SDS011;42463;52.214;21.238;2023-05-10T12:18:48;5.60;;;2.60;;
56581;SDS011;42463;52.214;21.238;2023-05-10T12:20:52;5.40;;;2.40;;
56581;SDS011;42463;52.214;21.238;2023-05-10T12:22:56;4.30;;;2.30;;
56581;SDS011;42463;52.214;21.238;2023-05-10T12:25:00;7.40;;;2.60;;
56581;SDS011;42463;52.214;21.238;2023-05-10T12:27:05;3.50;;;2.50;;
56581;SDS011;42463;52.214;21.238;2023-05-10T12:29:13;2.70;;;2.40;;
56581;SDS011;42463;52.214;21.238;2023-05-10T12:31:17;3.20;;;2.60;;
56581;SDS011;42463;52.214;21.238;2023-05-10T12:33:20;3.60;;;2.50;;
56581;SDS011;42463;52.214;21.238;2023-05-10T12:35:23;4.10;;;2.80;;
56581;SDS011;42463;52.214;21.238;2023-05-10T12:37:27;11.20;;;3.30;;
56581;SDS011;42463;52.214;21.238;2023-05-10T12:39:40;4.70;;;2.60;;
56581;SDS011;42463;52.214;21.238;2023-05-10T12:41:44;3.60;;;2.40;;
56581;SDS011;42463;52.214;21.238;2023-05-10T12:43:47;4.10;;;2.40;;
56581;SDS011;42463;52.214;21.238;2023-05-10T12:45:50;4.70;;;3.10;;
56581;SDS011;42463;52.214;21.238;2023-05-10T12:47:53;4.70;;;2.90;;
56581;SDS011;42463;52.214;21.238;2023-05-10T12:49:56;4.10;;;2.90;;